CheckWX is a tool to help pilots better visualize weather data.  It is not intended as a substitute for an official pre-flight weather briefing.

12:28:04 UTC

LEVT TAF
Vitoria / Foronda Airport
Alava, Spain
TAF LEVT 221100Z 2212/2312 19004KT CAVOK TX18/2214Z TN01/2306Z TEMPO 2214/2219 03010KT

Mar-22@
12:00 UTC

Mar-22 @ 12:00 UTC

Mar-23@
12:00 UTC

Mar-23 @ 12:00 UTC

TAF LEVT 221100Z 2212/2312 19004KT CAVOK TX18/2214Z TN01/2306Z
Wind
  • 190° at 4 KTS
Cloud Levels
  • No significant clouds

Mar-22@
14:00 UTC

Mar-22 @ 14:00 UTC

Mar-22@
19:00 UTC

Mar-22 @ 19:00 UTC

TEMPO 2214/2219 03010KT

Temporary

Temporary Changes expected for less than half the time period

Wind
  • 030° at 10 KTS